Historyczne dane pomiarowe

Dodano dane terminowe – wersja testowa.

Dane z okresu 1951-2019

Wersja bazy: 1.34 [2019-03-16, lista zmian], aktualizacja planowana na 2019-04-15

Dane meteo z obszaru Polski uzyskane na podstawie danych udostępnionych przez Instytut Meteorologii i Gospodarki Wodnej – Państwowy Instytut Badawczy.

 

Wybierz Datę:    

       

TemperaturaWilgotnośćWiatrCiśnienieOpadyŚniegCzas trwania zjawisk
 Stacja t tx tn tng RH VA  wxwx mslp ppp RRR   cm mm wxwxwxwxwxwxwx
1999-08-14 14.9 22.6 6.8 3.5 62.5- 5.0 2.7---- 1.2------------
1999-08-13 14.7 19.0 10.8 8.5 70.8- 6.7 3.3---- 0.0------------
1999-08-12 15.2 18.5 12.8 11.4 62.3- 6.7 3.7---- 0.0------------
1999-08-11 16.8 19.5 13.8 12.0 84.0- 8.0 4.3---- 6.3------------
1999-08-10 19.6 24.6 16.7 15.1 78.0- 8.0 2.3---- 3.2------------
1999-08-09 21.2 27.4 15.8 12.5 75.3- 4.3 3.0---- 0.0------------
1999-08-08 22.3 29.1 15.7 11.5 71.3- 4.0 2.3---- 0.0------------
1999-08-07 19.0 25.9 12.7 9.5 79.3- 5.3 2.7---- 0.3------------
1999-08-06 22.1 27.4 16.7 14.6 66.5- 5.3 2.3---- 0.0------------
1999-08-05 18.7 27.1 10.1 5.8 59.3- 6.0 2.7---- 0.0------------
1999-08-04 18.6 27.9 9.2 5.8 59.3- 2.0 1.0---- 0.0------------
1999-08-03 17.2 26.9 7.2 5.3 63.3- 1.0 1.3---- 0.0------------
1999-08-02 17.3 26.6 8.2 7.4 66.5- 2.7 2.0---- 0.0------------
1999-08-01 17.8 26.9 8.0 5.6 60.3- 3.7 1.7---- 0.0------------
1999-07-31 18.4 27.4 8.4 3.0 59.0- 2.0 2.0---- 0.0------------
1999-07-30 17.5 26.4 8.6 2.3 68.0- 1.7 2.7---- 0.0------------
1999-07-29 16.6 25.5 8.8 3.3 69.8- 2.0 3.0---- 0.0------------
1999-07-28 16.6 24.5 7.6 2.0 69.5- 2.7 3.7---- 0.0------------
1999-07-27 17.4 22.2 13.6 9.8 69.3- 7.0 3.3---- 0.0------------
1999-07-26 19.0 26.4 12.0 6.8 78.0- 4.0 3.0---- 0.0------------
1999-07-25 19.5 25.5 13.7 9.5 73.5- 2.7 1.3---- 0.0------------
1999-07-24 16.3 20.4 13.3 10.5 76.3- 6.0 2.3---- 0.0------------
1999-07-23 14.6 18.0 10.8 6.3 81.0- 7.0 2.0---- 1.5------------
1999-07-22 17.4 22.2 13.8 7.4 61.0- 6.7 2.7---- 0.0------------
1999-07-21 21.6 26.9 17.2 12.0 70.0- 4.0 5.3---- 0.0------------
1999-07-20 22.3 29.1 15.2 6.8 65.0- 2.7 2.7---- 0.5------------
1999-07-19 22.0 28.9 13.7 5.8 59.5- 1.0 1.7---- 0.0------------
1999-07-18 20.8 27.8 12.4 5.3 64.5- 3.0 1.7---- 0.0------------
1999-07-17 18.1 25.0 10.1 3.2 70.3- 2.7 1.7---- 0.0------------
1999-07-16 16.2 22.0 10.1 2.6 73.3- 3.3 2.7---- 0.0------------
1999-07-15 15.7 19.5 13.2 7.2 79.0- 7.3 3.0---- 0.0------------
1999-07-14 19.1 22.4 16.2 12.9 87.5- 6.0 3.3---- 10.2------------
1999-07-13 21.6 26.4 16.7 11.0 78.0- 5.3 3.3---- 0.0------------
1999-07-12 20.9 26.9 15.7 9.5 84.3- 5.3 2.0---- 0.0------------
1999-07-11 18.8 23.0 14.2 14.1 75.3- 6.3 4.7---- 1.4------------
1999-07-10 19.8 25.5 14.7 10.0 75.8- 5.0 6.7---- 0.0------------
1999-07-09 18.0 22.0 14.7 10.9 86.0- 8.0 5.7---- 1.1------------
1999-07-08 15.8 17.6 14.3 10.5 94.5- 8.0 3.0---- 5.7------------
1999-07-07 16.6 21.5 14.7 11.0 95.5- 8.0 2.0---- 5.3------------
1999-07-06 20.5 25.4 15.7 10.5 87.0- 7.3 3.3---- 32.5------------
1999-07-05 24.8 31.9 16.7 8.3 55.3- 4.3 5.0---- 4.7------------
1999-07-04 23.2 29.9 17.2 8.4 64.3- 2.0 2.7---- 0.0------------
1999-07-03 20.4 27.4 12.0 5.6 67.0- 0.7 2.3---- 0.0------------
1999-07-02 18.6 22.4 13.3 7.6 77.3- 6.0 3.0---- 0.0------------
1999-07-01 18.7 23.0 14.7 10.4 84.5- 6.7 2.0---- 0.2------------
1999-06-30 19.1 26.9 10.8 5.6 72.5- 5.3 1.7---- 1.8------------
1999-06-29 17.4 23.0 10.2 2.7 66.5- 5.0 1.7---- 0.0------------
1999-06-28 17.8 23.2 12.0 10.3 78.3- 6.7 3.0---- 1.9------------
1999-06-27 18.2 24.0 13.4 10.8 80.5- 7.0 3.3---- 0.4------------
1999-06-26 14.2 22.0 5.9 4.4 79.0- 4.0 2.3---- 1.8------------
1999-06-25 12.0 18.4 5.6 3.3 78.0- 6.3 3.3---- 0.1------------
1999-06-24 12.0 18.0 6.7 3.9 81.0- 6.7 1.7---- 0.0------------
1999-06-23 13.0 18.0 8.4 6.5 66.0- 5.3 4.3---- 0.0------------
1999-06-22 12.1 15.0 10.2 9.2 77.0- 7.3 5.3---- 0.1------------
1999-06-21 14.7 19.4 12.6 11.4 88.5- 8.0 3.0---- 4.4------------
1999-06-20 17.1 22.5 11.4 10.3 72.0- 4.3 3.7---- 0.4------------
1999-06-19 14.6 18.0 11.0 10.3 92.8- 7.3 3.0---- 0.0------------
1999-06-18 14.2 20.4 11.7 10.8 93.8- 8.0 4.0---- 28.9------------
1999-06-17 17.4 21.5 11.8 9.6 80.5- 7.0 1.0---- 0.2------------
1999-06-16 16.3 21.0 12.2 11.4 85.3- 7.3 3.3---- 0.0------------
237.0 ms

 

Źródłem pochodzenia danych jest Instytut Meteorologii i Gospodarki Wodnej – Państwowy Instytut Badawczy. Dane Instytutu Meteorologii i Gospodarki Wodnej – Państwowego Instytutu Badawczego zostały przetworzone.

Dane źródłowe można odnaleźć na stronie https://dane.imgw.pl